Terminal Aerodrome Forecast
Issued by NWS Medford, OR

Home | Current Version | Previous Version | Text Only | Print | Product List | Glossary On
Versions: 1 2 3 4 5 6 7 8 9 10 11 12 13 14 15 16 17 18 19 20 21 22 23 24 25
418
FTUS46 KMFR 202336
TAFMFR
TAF
KMFR 202336Z 2100/2124 VRB03KT P6SM SCT070
     FM211200 14008KT P6SM OVC080 WS020/23035KT
     FM212200 14012G20KT P6SM VCSH SCT050 OVC070 WS020/22045KT=

USA.gov is the U.S. government's official web portal to all federal, state and local government web resources and services.